Time;durP1;ratioP1;P1;durP2;ratioP2;P2;SDS_P1;SDS_P2;PMS_P1;PMS_P2;Temp;Humidity;BMP_temperature;BMP_pressure;BME280_temperature;BME280_humidity;BME280_pressure;Samples;Min_cycle;Max_cycle;Signal;HPM_P1;HPM_P2
2022/08/13 00:01:33;;;;;;;7.97;2.58;;;16.90;99.90;;;;;;4941369;28;20419;-82
2022/08/13 00:04:10;;;;;;;8.75;2.60;;;16.90;99.90;;;;;;4925791;29;20407;-83
2022/08/13 00:09:20;;;;;;;8.50;2.20;;;16.80;99.90;;;;;;4927219;29;20775;-83
2022/08/13 00:15:15;;;;;;;5.97;2.28;;;16.70;99.90;;;;;;4919625;29;20569;-83
2022/08/13 00:17:45;;;;;;;7.00;2.47;;;16.70;99.90;;;;;;4931415;29;20396;-83
2022/08/13 00:20:42;;;;;;;9.00;2.70;;;16.70;99.90;;;;;;4927378;29;20926;-83
2022/08/13 00:23:23;;;;;;;9.70;2.45;;;16.70;99.90;;;;;;4941829;28;20418;-81
2022/08/13 00:26:11;;;;;;;10.02;2.53;;;16.70;99.90;;;;;;4931502;29;20864;-83
2022/08/13 00:28:57;;;;;;;9.70;2.50;;;16.70;99.90;;;;;;4924179;29;20946;-83
2022/08/13 00:31:25;;;;;;;9.27;2.40;;;16.60;99.90;;;;;;4938979;29;20497;-83
2022/08/13 00:33:54;;;;;;;7.68;2.42;;;16.60;99.90;;;;;;4928219;29;20417;-82
2022/08/13 00:36:23;;;;;;;7.60;2.60;;;16.50;99.90;;;;;;4941568;28;20413;-83
2022/08/13 00:39:09;;;;;;;8.02;2.38;;;16.50;99.90;;;;;;4917881;29;20979;-83
2022/08/13 00:41:40;;;;;;;10.98;3.03;;;16.50;99.90;;;;;;4923834;29;20411;-84
2022/08/13 00:44:31;;;;;;;10.77;2.70;;;16.50;99.90;;;;;;4950158;28;20956;-82
2022/08/13 00:49:49;;;;;;;8.32;2.72;;;16.40;99.90;;;;;;4923078;29;20449;-82
2022/08/13 00:52:30;;;;;;;6.43;2.50;;;16.40;99.90;;;;;;4924950;29;20896;-82
2022/08/13 00:55:01;;;;;;;7.20;2.72;;;16.40;99.90;;;;;;4925225;29;20419;-82
2022/08/13 00:57:29;;;;;;;8.65;3.00;;;16.40;99.90;;;;;;4939273;28;20416;-83
2022/08/13 01:00:12;;;;;;;10.27;2.70;;;16.40;99.90;;;;;;4922937;29;20473;-83
2022/08/13 01:02:51;;;;;;;10.52;2.90;;;16.40;99.90;;;;;;4940079;28;20420;-82
2022/08/13 01:05:24;;;;;;;7.50;2.60;;;16.30;99.90;;;;;;4940199;28;20860;-83
2022/08/13 01:07:59;;;;;;;6.03;2.63;;;16.30;99.90;;;;;;4924947;29;20406;-82
2022/08/13 01:10:27;;;;;;;8.77;2.23;;;16.30;99.90;;;;;;4933003;29;20493;-82
2022/08/13 01:12:55;;;;;;;7.82;2.88;;;16.20;99.90;;;;;;4921248;29;20409;-82
2022/08/13 01:15:26;;;;;;;6.85;2.47;;;16.20;99.90;;;;;;4924097;29;20463;-82
2022/08/13 01:18:14;;;;;;;12.67;2.70;;;16.20;99.90;;;;;;4922526;29;20468;-82
2022/08/13 01:21:00;;;;;;;7.45;2.55;;;16.20;99.90;;;;;;4925536;29;20491;-83
2022/08/13 01:23:30;;;;;;;6.65;2.65;;;16.10;99.90;;;;;;4926304;29;20409;-82
2022/08/13 01:26:06;;;;;;;7.73;2.43;;;16.10;99.90;;;;;;4940123;28;20417;-82
2022/08/13 01:28:38;;;;;;;7.13;2.53;;;16.10;99.90;;;;;;4932418;29;20500;-83
2022/08/13 01:31:10;;;;;;;7.47;2.30;;;16.10;99.90;;;;;;4925991;29;20420;-82
2022/08/13 01:33:49;;;;;;;7.45;2.53;;;16.10;99.90;;;;;;4925407;29;20410;-82
2022/08/13 01:36:20;;;;;;;6.43;2.50;;;16.00;99.90;;;;;;4929354;29;20473;-82
2022/08/13 01:39:08;;;;;;;7.30;2.55;;;16.00;99.90;;;;;;4917215;29;20771;-83
2022/08/13 01:41:44;;;;;;;7.10;2.30;;;16.00;99.90;;;;;;4924621;29;20504;-82
2022/08/13 01:44:24;;;;;;;7.25;2.70;;;15.90;99.90;;;;;;4924298;29;20399;-82
2022/08/13 01:52:41;;;;;;;5.60;2.35;;;15.90;99.90;;;;;;4932024;28;20400;-83
2022/08/13 01:55:10;;;;;;;8.40;2.20;;;15.90;99.90;;;;;;4913841;29;20406;-83
2022/08/13 01:57:44;;;;;;;9.95;2.28;;;15.80;99.90;;;;;;4921088;29;20418;-83
2022/08/13 02:00:23;;;;;;;7.50;2.55;;;15.80;99.90;;;;;;4927506;29;20752;-83
2022/08/13 02:02:55;;;;;;;8.00;2.50;;;15.80;99.90;;;;;;4929910;29;20924;-83
2022/08/13 02:05:26;;;;;;;8.20;2.45;;;15.70;99.90;;;;;;4942135;28;20883;-83
2022/08/13 02:08:19;;;;;;;7.43;2.33;;;15.70;99.90;;;;;;4928451;29;20412;-83
2022/08/13 02:10:48;;;;;;;7.70;2.38;;;15.70;99.90;;;;;;4927285;29;20768;-82
2022/08/13 02:13:18;;;;;;;5.95;2.20;;;15.70;99.90;;;;;;4927621;29;20445;-81
2022/08/13 02:15:52;;;;;;;6.90;3.00;;;15.70;99.90;;;;;;4927531;29;20805;-83
2022/08/13 02:18:22;;;;;;;7.45;2.40;;;15.70;99.90;;;;;;4915866;29;20463;-82
2022/08/13 02:21:00;;;;;;;5.68;2.20;;;15.60;99.90;;;;;;4936438;29;20411;-82
2022/08/13 02:23:38;;;;;;;6.93;2.20;;;15.60;99.90;;;;;;4919587;29;20965;-83
2022/08/13 02:26:29;;;;;;;8.63;2.47;;;15.60;99.90;;;;;;4941413;29;20500;-82
2022/08/13 02:29:00;;;;;;;6.45;2.30;;;15.50;99.90;;;;;;4929645;29;20400;-83
2022/08/13 02:31:29;;;;;;;7.63;2.30;;;15.50;99.90;;;;;;4926444;29;20403;-83
2022/08/13 02:34:18;;;;;;;6.25;2.50;;;15.50;99.90;;;;;;4934262;29;20468;-82
2022/08/13 02:36:47;;;;;;;6.45;2.30;;;15.50;99.90;;;;;;4929400;29;20501;-82
2022/08/13 02:39:23;;;;;;;6.30;2.45;;;15.40;99.90;;;;;;4935518;28;20480;-82
2022/08/13 02:41:56;;;;;;;7.15;2.88;;;15.40;99.90;;;;;;4926497;29;20419;-81
2022/08/13 02:44:25;;;;;;;8.18;2.53;;;15.40;99.90;;;;;;4930101;29;20406;-83
2022/08/13 02:47:04;;;;;;;6.15;2.40;;;15.40;99.90;;;;;;4940047;28;20413;-82
2022/08/13 02:49:36;;;;;;;8.95;2.58;;;15.30;99.90;;;;;;4923771;29;20417;-82
2022/08/13 02:52:14;;;;;;;6.95;2.70;;;15.30;99.90;;;;;;4938329;28;20414;-82
2022/08/13 02:54:45;;;;;;;6.65;2.55;;;15.30;99.90;;;;;;4942313;28;20985;-82
2022/08/13 02:57:24;;;;;;;7.40;2.40;;;15.30;99.90;;;;;;4933748;29;20409;-83
2022/08/13 02:59:54;;;;;;;8.45;2.60;;;15.30;99.90;;;;;;4934937;28;20415;-82
2022/08/13 03:02:38;;;;;;;6.70;2.33;;;15.30;99.90;;;;;;4928779;29;20766;-82
2022/08/13 03:05:09;;;;;;;10.40;2.50;;;15.30;99.90;;;;;;4941851;28;20957;-82
2022/08/13 03:07:41;;;;;;;5.15;2.40;;;15.20;99.90;;;;;;4925302;29;20403;-82
2022/08/13 03:10:19;;;;;;;5.82;2.00;;;15.20;99.90;;;;;;4924915;29;20416;-82
2022/08/13 03:13:15;;;;;;;5.72;2.20;;;15.20;99.90;;;;;;4926687;29;20413;-84
2022/08/13 03:15:54;;;;;;;5.53;2.20;;;15.20;99.90;;;;;;4941297;28;20900;-83
2022/08/13 03:18:31;;;;;;;7.50;2.45;;;15.10;99.90;;;;;;4918754;29;20399;-82
2022/08/13 03:21:24;;;;;;;7.72;2.50;;;15.20;99.90;;;;;;4926858;29;20443;-82
2022/08/13 03:24:17;;;;;;;4.43;2.20;;;15.10;99.90;;;;;;4939125;28;20406;-82
2022/08/13 03:26:57;;;;;;;5.75;2.03;;;15.10;99.90;;;;;;4928603;29;20510;-83
2022/08/13 03:29:25;;;;;;;5.70;2.10;;;15.10;99.90;;;;;;4942009;29;20486;-82
2022/08/13 03:32:14;;;;;;;6.10;2.28;;;15.10;99.90;;;;;;4942916;28;20492;-82
2022/08/13 03:34:43;;;;;;;6.45;2.20;;;15.00;99.90;;;;;;4925849;29;20754;-83
2022/08/13 03:37:11;;;;;;;6.40;2.30;;;15.00;99.90;;;;;;4924731;29;20417;-82
2022/08/13 03:39:41;;;;;;;6.03;2.53;;;15.00;99.90;;;;;;4933396;29;20426;-82
2022/08/13 03:42:10;;;;;;;8.20;2.40;;;15.00;99.90;;;;;;4926763;29;20415;-81
2022/08/13 03:44:42;;;;;;;4.90;2.30;;;15.00;99.90;;;;;;4944809;28;20908;-82
2022/08/13 03:47:10;;;;;;;8.13;2.42;;;15.00;99.90;;;;;;4926583;29;20410;-82
2022/08/13 03:49:59;;;;;;;5.90;2.38;;;15.00;99.90;;;;;;4937604;28;20406;-83
2022/08/13 03:52:30;;;;;;;6.38;2.15;;;15.00;99.90;;;;;;4932619;29;20441;-83
2022/08/13 03:55:11;;;;;;;7.05;2.38;;;14.90;99.90;;;;;;4940951;28;20418;-83
2022/08/13 03:57:41;;;;;;;6.85;2.40;;;15.00;99.90;;;;;;4928263;29;20492;-83
2022/08/13 04:00:30;;;;;;;6.13;2.27;;;15.00;99.90;;;;;;4940272;28;20436;-82
2022/08/13 04:03:00;;;;;;;4.75;2.10;;;15.10;99.90;;;;;;4919335;29;20414;-82
2022/08/13 04:05:30;;;;;;;5.53;2.38;;;15.10;99.90;;;;;;4942482;28;20905;-83
2022/08/13 04:08:18;;;;;;;6.65;2.30;;;15.10;99.90;;;;;;4928498;29;20460;-82
2022/08/13 04:10:45;;;;;;;7.28;2.40;;;15.10;99.90;;;;;;4928711;29;20417;-83
2022/08/13 04:13:22;;;;;;;7.25;2.22;;;15.10;99.90;;;;;;4933431;28;20412;-82
2022/08/13 04:16:21;;;;;;;6.72;2.20;;;15.10;99.90;;;;;;4921372;29;20522;-82
2022/08/13 04:19:01;;;;;;;6.50;2.30;;;15.10;99.90;;;;;;4935491;28;20416;-82
2022/08/13 04:21:31;;;;;;;8.25;2.58;;;15.20;99.90;;;;;;4941278;28;20472;-83
2022/08/13 04:24:04;;;;;;;9.48;2.47;;;15.10;99.90;;;;;;4920064;29;20422;-83
2022/08/13 04:26:38;;;;;;;7.80;2.55;;;15.10;99.90;;;;;;4925310;29;20490;-83
2022/08/13 04:29:10;;;;;;;6.03;2.50;;;15.20;99.90;;;;;;4924929;29;20406;-83
2022/08/13 04:31:41;;;;;;;6.85;2.20;;;15.20;99.90;;;;;;4941853;29;20395;-82
2022/08/13 04:34:22;;;;;;;7.13;2.22;;;15.20;99.90;;;;;;4940980;28;20404;-83
2022/08/13 04:37:09;;;;;;;4.97;2.23;;;15.20;99.90;;;;;;4925148;29;20409;-83
2022/08/13 04:39:53;;;;;;;6.60;2.10;;;15.30;99.90;;;;;;4928987;29;20443;-83
2022/08/13 04:42:48;;;;;;;4.70;2.00;;;15.30;99.90;;;;;;4924643;29;20506;-83
2022/08/13 04:45:18;;;;;;;4.80;1.90;;;15.30;99.90;;;;;;4939702;28;20476;-82
2022/08/13 04:47:52;;;;;;;4.68;2.20;;;15.30;99.90;;;;;;4922378;29;20898;-83
2022/08/13 04:50:21;;;;;;;5.75;2.33;;;15.40;99.90;;;;;;4940388;28;20402;-83
2022/08/13 04:52:56;;;;;;;7.35;2.10;;;15.30;99.90;;;;;;4930270;29;20413;-82
2022/08/13 04:55:26;;;;;;;6.72;2.28;;;15.40;99.90;;;;;;4925948;29;20400;-81
2022/08/13 04:58:14;;;;;;;7.68;2.55;;;15.40;99.90;;;;;;4939504;29;20398;-82
2022/08/13 05:00:44;;;;;;;9.18;2.63;;;15.40;99.90;;;;;;4926300;29;20480;-82
2022/08/13 05:03:20;;;;;;;6.65;2.65;;;15.40;99.90;;;;;;4930972;29;20904;-82
2022/08/13 05:05:52;;;;;;;6.47;2.42;;;15.50;99.90;;;;;;4925059;29;20496;-83
2022/08/13 05:08:20;;;;;;;6.07;2.20;;;15.50;99.90;;;;;;4937350;29;20392;-83
2022/08/13 05:10:50;;;;;;;5.30;2.10;;;15.50;99.90;;;;;;4930976;28;20405;-83
2022/08/13 05:13:29;;;;;;;7.22;2.45;;;15.60;99.90;;;;;;4924734;29;20440;-82
2022/08/13 05:16:18;;;;;;;4.28;1.90;;;15.60;99.90;;;;;;4940850;28;20433;-83
2022/08/13 05:18:52;;;;;;;5.50;2.15;;;15.70;99.90;;;;;;4922636;29;20401;-83
2022/08/13 05:21:22;;;;;;;6.03;2.20;;;15.70;99.90;;;;;;4924432;29;20421;-83
2022/08/13 05:24:00;;;;;;;5.88;2.28;;;15.80;99.90;;;;;;4924513;29;20414;-83
2022/08/13 05:26:48;;;;;;;5.47;2.22;;;15.80;99.90;;;;;;4938952;28;20410;-83
2022/08/13 05:29:27;;;;;;;4.57;2.20;;;15.90;99.90;;;;;;4922396;29;20415;-84
2022/08/13 05:31:54;;;;;;;13.88;8.25;;;16.00;99.90;;;;;;4941388;29;20937;-83
2022/08/13 05:34:27;;;;;;;14.27;7.32;;;16.10;99.90;;;;;;4925081;29;20439;-83
2022/08/13 05:36:58;;;;;;;4.85;2.20;;;16.10;99.90;;;;;;4915455;29;20486;-82
2022/08/13 05:39:46;;;;;;;7.33;1.93;;;16.20;99.90;;;;;;4917971;29;20415;-84
2022/08/13 05:42:20;;;;;;;4.82;2.17;;;16.30;99.90;;;;;;4925271;29;20449;-84
2022/08/13 05:45:00;;;;;;;5.85;1.92;;;16.30;99.90;;;;;;4921632;29;20576;-80
2022/08/13 05:47:36;;;;;;;4.90;1.92;;;16.40;99.90;;;;;;4938997;29;20386;-79
2022/08/13 05:50:13;;;;;;;4.40;2.20;;;16.40;99.90;;;;;;4931623;29;20402;-82
2022/08/13 05:52:44;;;;;;;8.10;4.25;;;16.40;99.90;;;;;;4916204;29;20820;-82
2022/08/13 05:55:19;;;;;;;6.00;2.60;;;16.40;99.90;;;;;;4923799;29;20807;-82
2022/08/13 05:58:13;;;;;;;7.32;1.90;;;16.50;99.90;;;;;;4938015;29;21017;-81
2022/08/13 06:03:40;;;;;;;5.15;2.10;;;16.80;99.90;;;;;;4934892;29;20439;-80
2022/08/13 06:06:32;;;;;;;6.80;2.65;;;16.80;99.90;;;;;;4940871;29;20412;-81
2022/08/13 06:09:05;;;;;;;5.68;1.90;;;16.80;99.90;;;;;;4939385;29;20463;-86
2022/08/13 06:11:40;;;;;;;7.00;2.05;;;16.80;99.90;;;;;;4939332;29;20390;-85
2022/08/13 06:14:31;;;;;;;4.40;2.00;;;16.80;99.90;;;;;;4935358;29;20480;-85
2022/08/13 06:17:02;;;;;;;4.77;1.97;;;16.90;99.90;;;;;;4924137;29;20409;-84
2022/08/13 06:19:43;;;;;;;7.93;2.00;;;17.00;99.90;;;;;;4924371;29;20410;-84
2022/08/13 06:22:20;;;;;;;6.13;1.70;;;17.00;99.90;;;;;;4938492;28;20421;-85
2022/08/13 06:24:51;;;;;;;5.40;1.90;;;17.00;99.90;;;;;;4919638;29;20447;-85
2022/08/13 06:27:23;;;;;;;4.38;1.58;;;17.10;99.90;;;;;;4923643;29;20816;-85
2022/08/13 06:30:16;;;;;;;3.77;1.60;;;17.10;99.90;;;;;;4934790;29;20765;-86
2022/08/13 06:33:01;;;;;;;5.70;1.73;;;17.10;99.90;;;;;;4926847;29;20432;-83
2022/08/13 06:35:55;;;;;;;4.38;1.73;;;17.20;99.90;;;;;;4934392;29;21383;-85
2022/08/13 06:38:43;;;;;;;5.22;2.28;;;17.20;99.90;;;;;;4938977;29;20386;-85
2022/08/13 06:41:20;;;;;;;7.55;1.67;;;17.20;99.90;;;;;;4959362;28;20469;-85
2022/08/13 06:43:53;;;;;;;3.65;1.60;;;17.20;99.90;;;;;;4931241;29;20961;-85
2022/08/13 06:46:29;;;;;;;5.28;1.67;;;17.20;99.90;;;;;;4929469;29;20395;-86
2022/08/13 06:49:02;;;;;;;6.25;1.98;;;17.40;99.90;;;;;;4925660;29;20409;-84
2022/08/13 06:51:33;;;;;;;5.17;1.67;;;17.40;99.90;;;;;;4927669;29;20452;-84
2022/08/13 06:54:08;;;;;;;8.00;1.90;;;17.50;99.90;;;;;;4939177;29;20405;-84
2022/08/13 06:56:58;;;;;;;11.68;2.90;;;17.50;99.90;;;;;;4941123;29;20469;-83
2022/08/13 06:59:48;;;;;;;8.77;2.65;;;17.70;99.90;;;;;;4945450;28;20417;-84
2022/08/13 07:02:37;;;;;;;6.88;1.85;;;17.90;99.90;;;;;;4934652;29;20422;-84
2022/08/13 07:05:05;;;;;;;3.38;1.70;;;17.90;99.90;;;;;;4942770;29;20921;-84
2022/08/13 07:07:44;;;;;;;5.10;2.10;;;18.00;99.90;;;;;;4927390;29;20398;-84
2022/08/13 07:10:13;;;;;;;6.57;1.93;;;18.00;99.90;;;;;;4939024;28;20509;-85
2022/08/13 07:12:42;;;;;;;4.95;1.90;;;18.10;99.90;;;;;;4941275;28;20422;-84
2022/08/13 07:15:17;;;;;;;6.28;1.50;;;18.20;99.90;;;;;;4941499;28;20471;-83
2022/08/13 07:18:07;;;;;;;5.93;1.95;;;18.60;99.90;;;;;;4921636;29;20503;-84
2022/08/13 07:20:37;;;;;;;8.30;1.93;;;18.50;99.90;;;;;;4934636;29;20408;-83
2022/08/13 07:23:05;;;;;;;8.57;1.90;;;18.50;99.90;;;;;;4929446;29;20908;-84
2022/08/13 07:25:55;;;;;;;5.03;2.05;;;18.70;99.90;;;;;;4928272;29;20402;-83
2022/08/13 07:28:27;;;;;;;6.00;2.17;;;18.60;99.90;;;;;;4947154;28;20421;-85
2022/08/13 07:31:16;;;;;;;9.40;2.50;;;18.80;99.90;;;;;;4923832;29;20439;-84
2022/08/13 07:33:49;;;;;;;7.93;2.20;;;18.80;99.90;;;;;;4944106;28;20411;-85
2022/08/13 07:36:33;;;;;;;2.92;1.80;;;18.90;99.90;;;;;;4929099;29;20478;-84
2022/08/13 07:39:02;;;;;;;7.47;1.90;;;18.90;99.90;;;;;;4934381;29;20909;-84
2022/08/13 07:41:46;;;;;;;7.22;1.90;;;19.00;99.90;;;;;;4923504;29;20419;-84
2022/08/13 07:44:31;;;;;;;6.97;2.00;;;19.10;99.90;;;;;;4929085;29;20416;-83
2022/08/13 07:47:20;;;;;;;8.45;2.10;;;19.30;99.90;;;;;;4942976;28;20430;-84
2022/08/13 07:49:54;;;;;;;5.15;1.85;;;19.40;99.90;;;;;;4935347;29;20413;-84
2022/08/13 07:52:29;;;;;;;6.72;2.00;;;19.30;99.90;;;;;;4931379;29;20399;-83
2022/08/13 07:55:00;;;;;;;7.45;2.15;;;19.20;99.90;;;;;;4928242;29;20444;-83
2022/08/13 07:57:32;;;;;;;6.60;2.05;;;19.40;99.90;;;;;;4919796;29;20424;-84
2022/08/13 08:00:08;;;;;;;7.70;2.25;;;19.30;99.90;;;;;;4933777;28;20420;-83
2022/08/13 08:03:01;;;;;;;7.30;1.90;;;19.40;99.90;;;;;;4925077;29;20422;-83
2022/08/13 08:05:36;;;;;;;6.32;2.03;;;19.70;99.90;;;;;;4931299;29;20438;-83
2022/08/13 08:08:10;;;;;;;3.75;1.90;;;19.80;99.90;;;;;;4953384;28;20494;-83
2022/08/13 08:10:47;;;;;;;5.63;1.80;;;19.80;99.90;;;;;;4937394;29;20447;-84
2022/08/13 08:13:15;;;;;;;7.53;2.05;;;19.80;99.90;;;;;;4939128;29;20913;-84
2022/08/13 08:15:44;;;;;;;6.70;2.00;;;19.80;99.90;;;;;;4939730;28;20408;-84
2022/08/13 08:18:33;;;;;;;7.82;3.47;;;19.80;99.90;;;;;;4944194;28;20404;-86
2022/08/13 08:21:23;;;;;;;5.60;3.30;;;19.90;99.90;;;;;;4945497;29;20469;-82
2022/08/13 08:24:13;;;;;;;6.60;2.15;;;20.00;99.90;;;;;;4939442;29;20402;-84
2022/08/13 08:27:09;;;;;;;6.68;2.25;;;20.30;99.90;;;;;;4937255;29;20407;-83
2022/08/13 08:29:46;;;;;;;21.33;6.22;;;20.40;99.90;;;;;;4935732;29;20409;-85
2022/08/13 08:32:22;;;;;;;5.10;2.30;;;20.40;99.90;;;;;;4954773;28;20504;-82
2022/08/13 08:35:11;;;;;;;3.80;1.98;;;20.50;99.90;;;;;;4925477;29;21226;-82
2022/08/13 08:43:27;;;;;;;5.95;1.80;;;20.60;99.90;;;;;;4937666;29;20419;-85
2022/08/13 08:46:15;;;;;;;5.37;2.00;;;20.70;99.90;;;;;;4940318;28;20936;-84
2022/08/13 08:48:43;;;;;;;9.15;2.10;;;20.90;99.90;;;;;;4961927;28;20425;-82
2022/08/13 08:51:22;;;;;;;6.60;2.10;;;21.00;99.90;;;;;;4939158;29;20443;-82
2022/08/13 08:53:54;;;;;;;5.90;2.20;;;21.00;99.90;;;;;;4957538;28;20890;-84
2022/08/13 08:56:42;;;;;;;6.03;2.17;;;21.00;99.90;;;;;;4959730;28;20434;-85
2022/08/13 08:59:32;;;;;;;8.40;3.47;;;21.10;99.90;;;;;;4959027;28;20937;-85
2022/08/13 09:02:00;;;;;;;7.32;2.35;;;21.10;99.90;;;;;;4951983;28;20410;-86
2022/08/13 09:04:29;;;;;;;7.53;2.40;;;21.20;99.90;;;;;;4941040;29;20411;-80
2022/08/13 09:07:18;;;;;;;3.60;1.98;;;21.20;99.90;;;;;;4936133;29;20409;-81
2022/08/13 09:09:54;;;;;;;5.13;2.15;;;21.40;99.90;;;;;;4932983;29;20443;-81
2022/08/13 09:12:25;;;;;;;7.30;1.67;;;21.50;99.90;;;;;;4939253;29;20420;-86
2022/08/13 09:14:57;;;;;;;7.53;2.17;;;21.50;99.90;;;;;;4929346;28;20418;-87
2022/08/13 09:17:27;;;;;;;4.88;2.10;;;21.60;99.90;;;;;;4954169;28;20934;-86
2022/08/13 09:20:12;;;;;;;5.10;1.90;;;21.60;99.90;;;;;;4933562;29;20897;-83
2022/08/13 09:22:45;;;;;;;5.03;2.10;;;21.70;99.90;;;;;;4924934;29;20414;-86
2022/08/13 09:25:24;;;;;;;3.75;1.73;;;21.70;99.90;;;;;;4921950;29;20909;-86
2022/08/13 09:27:53;;;;;;;6.43;1.92;;;21.60;99.90;;;;;;4941317;29;20935;-87
2022/08/13 09:30:41;;;;;;;6.28;2.10;;;22.00;99.90;;;;;;4940947;29;20416;-85
2022/08/13 09:33:17;;;;;;;5.38;2.28;;;22.10;99.90;;;;;;4930106;29;20427;-85
2022/08/13 09:36:09;;;;;;;7.15;1.98;;;22.10;99.90;;;;;;4952702;28;20842;-86
2022/08/13 09:38:51;;;;;;;9.95;2.30;;;22.10;99.90;;;;;;4942680;28;20718;-87
2022/08/13 09:41:32;;;;;;;6.32;2.53;;;22.10;99.90;;;;;;4958566;28;20404;-85
2022/08/13 09:44:05;;;;;;;5.90;2.00;;;22.10;99.90;;;;;;4960888;28;20825;-86
2022/08/13 09:46:45;;;;;;;4.40;2.20;;;22.10;99.90;;;;;;4942997;28;20785;-88
2022/08/13 09:49:20;;;;;;;7.07;2.20;;;22.20;99.90;;;;;;4964048;28;20404;-87
2022/08/13 09:52:08;;;;;;;5.47;2.20;;;22.30;99.90;;;;;;4926681;29;20504;-87
2022/08/13 09:54:47;;;;;;;4.90;2.20;;;22.40;99.90;;;;;;4928424;29;20452;-87
2022/08/13 09:57:20;;;;;;;4.45;2.17;;;22.30;99.90;;;;;;4919877;29;20512;-87
2022/08/13 09:59:49;;;;;;;6.00;2.17;;;22.50;99.90;;;;;;4940656;29;20805;-89
2022/08/13 10:02:24;;;;;;;6.40;2.40;;;22.60;99.90;;;;;;4929379;28;20426;-86
2022/08/13 10:04:55;;;;;;;4.82;2.05;;;22.60;99.90;;;;;;4925037;29;20496;-88
2022/08/13 10:07:23;;;;;;;46.92;42.25;;;22.70;99.90;;;;;;4925412;29;20411;-85
2022/08/13 10:09:51;;;;;;;8.43;3.92;;;22.50;99.90;;;;;;4923116;29;20406;-85
2022/08/13 10:12:41;;;;;;;7.93;2.38;;;22.60;99.90;;;;;;4924034;29;20963;-85
2022/08/13 10:15:14;;;;;;;7.22;2.25;;;22.70;99.90;;;;;;4943063;28;20406;-86
2022/08/13 10:17:55;;;;;;;7.60;2.30;;;22.70;99.90;;;;;;4923721;29;20419;-87
2022/08/13 10:20:41;;;;;;;4.30;2.30;;;22.70;99.90;;;;;;4947632;28;20473;-88
2022/08/13 10:23:10;;;;;;;5.70;2.13;;;22.80;99.90;;;;;;4939322;28;20417;-86
2022/08/13 10:25:39;;;;;;;4.85;2.30;;;22.90;99.90;;;;;;4924052;29;20402;-87
2022/08/13 10:28:20;;;;;;;5.65;2.22;;;23.10;99.90;;;;;;4924250;29;20417;-87
2022/08/13 10:31:00;;;;;;;5.47;2.15;;;23.00;99.90;;;;;;4924182;29;20452;-85
2022/08/13 10:33:47;;;;;;;9.02;2.45;;;23.10;99.90;;;;;;4928737;29;20480;-85
2022/08/13 10:36:16;;;;;;;4.43;2.30;;;23.20;99.90;;;;;;4928044;29;20405;-86
2022/08/13 10:38:44;;;;;;;5.30;2.15;;;23.30;99.90;;;;;;4934227;29;20814;-88
2022/08/13 10:41:20;;;;;;;6.70;2.30;;;23.30;99.90;;;;;;4943587;29;20426;-88
2022/08/13 10:43:56;;;;;;;6.68;2.30;;;23.30;99.90;;;;;;4948505;28;20439;-87
2022/08/13 10:46:31;;;;;;;5.60;2.10;;;23.40;99.90;;;;;;4946250;28;20424;-82
2022/08/13 10:49:04;;;;;;;6.75;2.30;;;23.50;99.90;;;;;;4947766;28;20957;-86
2022/08/13 10:51:31;;;;;;;10.37;2.70;;;23.50;99.90;;;;;;4944303;29;20402;-88
2022/08/13 10:54:11;;;;;;;5.00;2.40;;;23.60;99.90;;;;;;4942878;29;20400;-89
2022/08/13 10:56:59;;;;;;;8.90;2.25;;;23.40;99.90;;;;;;4957174;28;20453;-87
2022/08/13 10:59:26;;;;;;;7.13;2.25;;;23.50;99.90;;;;;;4962873;28;20415;-84
2022/08/13 11:01:54;;;;;;;7.80;2.65;;;23.70;99.90;;;;;;4943288;29;20409;-85
2022/08/13 11:04:28;;;;;;;7.65;2.53;;;23.70;99.90;;;;;;4941287;28;20485;-85
2022/08/13 11:07:00;;;;;;;5.95;2.42;;;23.90;99.90;;;;;;4937549;28;20788;-83
2022/08/13 11:09:28;;;;;;;5.93;2.20;;;24.20;99.90;;;;;;4940860;29;20909;-86
2022/08/13 11:12:05;;;;;;;9.43;3.27;;;24.20;99.90;;;;;;4938132;29;20506;-85
2022/08/13 11:14:34;;;;;;;8.60;2.60;;;24.10;99.90;;;;;;4942162;29;20562;-86
2022/08/13 11:17:09;;;;;;;10.77;2.88;;;24.30;99.90;;;;;;4940012;29;20457;-85
2022/08/13 11:20:01;;;;;;;4.60;2.47;;;24.20;99.90;;;;;;4935312;29;20884;-85
2022/08/13 11:22:34;;;;;;;6.70;2.30;;;24.20;99.90;;;;;;4941185;28;20919;-85
2022/08/13 11:25:03;;;;;;;6.25;2.47;;;24.40;99.90;;;;;;4918533;29;20421;-86
2022/08/13 11:27:51;;;;;;;7.40;2.40;;;24.50;99.90;;;;;;4935796;28;20425;-86
2022/08/13 11:30:20;;;;;;;8.30;2.70;;;24.70;99.90;;;;;;4933713;29;20404;-85
2022/08/13 11:33:05;;;;;;;6.27;2.13;;;24.70;99.90;;;;;;4944348;28;20956;-86
2022/08/13 11:35:44;;;;;;;6.77;2.60;;;24.60;99.90;;;;;;4940444;28;20419;-86
2022/08/13 11:38:18;;;;;;;5.72;2.45;;;24.90;99.90;;;;;;4923546;29;20490;-86
2022/08/13 11:40:57;;;;;;;6.68;2.63;;;24.80;99.90;;;;;;4942630;28;20414;-85
2022/08/13 11:43:28;;;;;;;7.35;2.60;;;24.90;99.90;;;;;;4935224;29;20417;-85
2022/08/13 11:46:16;;;;;;;5.53;2.60;;;25.00;99.90;;;;;;4923993;29;20404;-85
2022/08/13 11:48:48;;;;;;;6.10;2.63;;;25.10;99.90;;;;;;4952855;28;20418;-84
2022/08/13 11:51:35;;;;;;;7.07;2.60;;;25.20;99.90;;;;;;4939546;29;20410;-85
2022/08/13 11:54:20;;;;;;;7.80;2.70;;;25.20;99.90;;;;;;4937042;29;20467;-85
2022/08/13 11:57:02;;;;;;;22.95;3.80;;;25.30;99.90;;;;;;4928952;29;20412;-85
2022/08/13 11:59:30;;;;;;;6.22;2.40;;;25.40;99.90;;;;;;4923436;29;20924;-85
2022/08/13 12:02:07;;;;;;;7.72;2.78;;;25.40;99.90;;;;;;4934857;29;20507;-85
2022/08/13 12:04:43;;;;;;;11.77;3.03;;;25.60;99.90;;;;;;4933968;29;20841;-84
2022/08/13 12:07:19;;;;;;;5.40;2.30;;;25.70;99.90;;;;;;4925948;29;20888;-84
2022/08/13 12:09:47;;;;;;;6.13;2.40;;;25.90;99.90;;;;;;4931181;29;20407;-84
2022/08/13 12:12:22;;;;;;;4.85;2.53;;;25.80;99.90;;;;;;4940705;28;20411;-84
2022/08/13 12:14:59;;;;;;;4.65;2.53;;;25.70;99.90;;;;;;4919075;29;20401;-85
2022/08/13 12:17:28;;;;;;;8.00;2.67;;;25.70;99.90;;;;;;4932321;29;20412;-85
2022/08/13 12:20:18;;;;;;;6.25;2.92;;;25.70;99.90;;;;;;4933384;29;20409;-84
2022/08/13 12:22:49;;;;;;;8.48;2.50;;;26.00;99.90;;;;;;4939668;28;20505;-85
2022/08/13 12:25:20;;;;;;;6.20;2.30;;;26.00;99.90;;;;;;4926112;29;20417;-85
2022/08/13 12:28:25;;;;;;;7.05;2.30;;;26.00;99.90;;;;;;4935788;28;20406;-86
2022/08/13 12:30:56;;;;;;;4.57;2.40;;;25.80;99.90;;;;;;4925046;29;20406;-85
2022/08/13 12:33:24;;;;;;;6.15;2.92;;;25.70;99.90;;;;;;4932949;29;20410;-86
2022/08/13 12:36:06;;;;;;;4.90;2.30;;;25.70;99.90;;;;;;4927343;29;20414;-85
2022/08/13 12:38:35;;;;;;;5.93;2.30;;;26.10;99.90;;;;;;4924906;29;20430;-85
2022/08/13 12:41:03;;;;;;;10.13;2.95;;;26.20;99.90;;;;;;4942110;28;20410;-84
2022/08/13 12:43:45;;;;;;;5.25;2.53;;;26.30;99.90;;;;;;4932753;29;20417;-85
2022/08/13 12:46:34;;;;;;;5.93;2.60;;;26.20;99.90;;;;;;4920557;29;20404;-85
2022/08/13 12:49:07;;;;;;;7.57;2.42;;;26.30;99.90;;;;;;4921599;29;20463;-86
2022/08/13 12:51:43;;;;;;;7.20;2.50;;;26.40;99.90;;;;;;4921601;29;20413;-85
2022/08/13 12:54:24;;;;;;;9.73;2.90;;;26.60;99.90;;;;;;4926298;29;20402;-86
2022/08/13 12:57:11;;;;;;;6.03;2.50;;;26.50;99.90;;;;;;4952754;28;20950;-86
2022/08/13 12:59:54;;;;;;;15.68;10.68;;;26.50;99.90;;;;;;4935622;28;20859;-86
2022/08/13 13:02:33;;;;;;;6.03;2.60;;;26.70;99.90;;;;;;4939049;29;20398;-85
2022/08/13 13:05:01;;;;;;;6.70;3.83;;;26.80;99.90;;;;;;4931388;29;20439;-86
2022/08/13 13:07:47;;;;;;;6.82;2.53;;;26.90;99.90;;;;;;4918564;29;20423;-86
2022/08/13 13:10:39;;;;;;;7.78;2.63;;;26.90;99.90;;;;;;4939566;28;20796;-86
2022/08/13 13:13:19;;;;;;;5.63;2.60;;;26.60;99.90;;;;;;4929644;29;20436;-86
2022/08/13 13:16:07;;;;;;;6.85;2.20;;;26.40;99.90;;;;;;4924766;29;20812;-86
2022/08/13 13:18:57;;;;;;;6.78;2.40;;;26.60;99.90;;;;;;4931419;28;20412;-85
2022/08/13 13:21:29;;;;;;;6.20;2.60;;;26.80;99.90;;;;;;4941951;29;20402;-86
2022/08/13 13:24:13;;;;;;;5.85;2.40;;;26.60;99.90;;;;;;4940779;29;20404;-86
2022/08/13 13:26:47;;;;;;;6.07;2.47;;;26.60;99.90;;;;;;4926065;29;20483;-85
2022/08/13 13:29:32;;;;;;;4.22;2.22;;;26.70;99.90;;;;;;4922698;29;20395;-84
2022/08/13 13:32:06;;;;;;;5.93;2.42;;;26.90;99.90;;;;;;4929165;29;20396;-85
2022/08/13 13:34:55;;;;;;;15.20;3.20;;;27.00;99.90;;;;;;4943096;28;20411;-88
2022/08/13 13:37:26;;;;;;;12.00;2.75;;;27.20;99.90;;;;;;4929682;29;20403;-85
2022/08/13 13:40:12;;;;;;;7.03;2.40;;;27.30;99.90;;;;;;4917070;29;20424;-85
2022/08/13 13:42:41;;;;;;;6.10;2.57;;;27.20;99.90;;;;;;4919029;29;20455;-84
2022/08/13 13:45:30;;;;;;;5.13;2.22;;;27.10;99.90;;;;;;4936366;28;20413;-85
2022/08/13 13:48:34;;;;;;;3.33;2.25;;;27.30;99.90;;;;;;4937379;29;20399;-84
2022/08/13 13:51:05;;;;;;;6.93;2.47;;;26.90;99.90;;;;;;4940453;28;20513;-83
2022/08/13 13:53:37;;;;;;;8.98;2.50;;;26.90;99.90;;;;;;4930970;29;20414;-85
2022/08/13 13:56:25;;;;;;;5.47;2.35;;;27.10;99.90;;;;;;4938126;28;20483;-83
2022/08/13 13:58:54;;;;;;;6.13;2.50;;;27.10;99.90;;;;;;4932588;29;20405;-84
2022/08/13 14:01:26;;;;;;;3.88;2.25;;;27.20;99.90;;;;;;4923379;29;20820;-84